Time;durP1;ratioP1;P1;durP2;ratioP2;P2;SDS_P1;SDS_P2;PMS_P1;PMS_P2;Temp;Humidity;BMP_temperature;BMP_pressure;BME280_temperature;BME280_humidity;BME280_pressure;Samples;Min_cycle;Max_cycle;Signal;HPM_P1;HPM_P2
2021/03/03 00:01:28;;;;;;;2.38;2.17;;;21.60;18.50;;;;;;5033436;28;20152;-55
2021/03/03 00:03:53;;;;;;;2.73;2.53;;;21.60;18.50;;;;;;5033251;28;20508;-54
2021/03/03 00:06:21;;;;;;;3.23;2.73;;;21.60;18.50;;;;;;5033249;28;20256;-55
2021/03/03 00:08:47;;;;;;;2.60;2.40;;;21.60;18.50;;;;;;5032726;28;20496;-54
2021/03/03 00:11:15;;;;;;;3.00;2.67;;;21.60;18.50;;;;;;5033344;28;20206;-55
2021/03/03 00:13:40;;;;;;;2.70;2.50;;;21.60;18.60;;;;;;5033072;28;20168;-54
2021/03/03 00:16:06;;;;;;;2.50;2.00;;;21.60;18.60;;;;;;5015601;28;20668;-54
2021/03/03 00:18:32;;;;;;;2.60;2.40;;;21.60;18.50;;;;;;5033190;28;20156;-54
2021/03/03 00:20:58;;;;;;;2.40;2.20;;;21.60;18.50;;;;;;5033192;28;20203;-55
2021/03/03 00:23:23;;;;;;;2.90;2.67;;;21.60;18.60;;;;;;5032670;28;20183;-54
2021/03/03 00:25:49;;;;;;;2.73;2.53;;;21.60;18.60;;;;;;5015474;28;20164;-54
2021/03/03 00:28:15;;;;;;;2.13;2.00;;;21.60;18.60;;;;;;5032995;28;20580;-53
2021/03/03 00:30:42;;;;;;;3.17;2.53;;;21.60;18.60;;;;;;5033661;28;20238;-54
2021/03/03 00:33:08;;;;;;;2.75;2.55;;;21.60;18.60;;;;;;5036685;28;20161;-54
2021/03/03 00:35:34;;;;;;;2.17;2.07;;;21.60;18.60;;;;;;5036752;28;20487;-54
2021/03/03 00:37:59;;;;;;;2.67;2.47;;;21.60;18.60;;;;;;5036415;28;20156;-54
2021/03/03 00:40:25;;;;;;;3.20;2.90;;;21.60;18.60;;;;;;5037178;28;20225;-54
2021/03/03 00:42:50;;;;;;;3.73;2.73;;;21.60;18.60;;;;;;5036529;28;20635;-55
2021/03/03 00:45:21;;;;;;;2.60;2.40;;;21.50;18.60;;;;;;5036509;28;20745;-54
2021/03/03 00:47:47;;;;;;;2.38;2.20;;;21.50;18.60;;;;;;5036586;28;20225;-55
2021/03/03 00:50:13;;;;;;;2.63;2.43;;;21.50;18.60;;;;;;5036460;28;20188;-54
2021/03/03 00:52:39;;;;;;;2.58;2.38;;;21.50;18.60;;;;;;5036374;28;20163;-54
2021/03/03 00:55:07;;;;;;;2.13;2.03;;;21.50;18.60;;;;;;5036007;28;20163;-54
2021/03/03 00:57:33;;;;;;;2.13;2.03;;;21.50;18.60;;;;;;5036266;28;20188;-55
2021/03/03 00:59:58;;;;;;;2.73;2.50;;;21.50;18.60;;;;;;5036363;28;20163;-54
2021/03/03 01:02:24;;;;;;;2.27;2.10;;;21.50;18.60;;;;;;5036255;28;20187;-54
2021/03/03 01:04:50;;;;;;;2.70;2.50;;;21.50;18.70;;;;;;5036081;28;20156;-53
2021/03/03 01:07:15;;;;;;;2.43;2.20;;;21.50;18.60;;;;;;5036358;28;20279;-54
2021/03/03 01:09:41;;;;;;;2.93;2.73;;;21.50;18.70;;;;;;5035701;28;20194;-54
2021/03/03 01:12:07;;;;;;;2.20;2.00;;;21.50;18.70;;;;;;5036153;28;20630;-55
2021/03/03 01:14:35;;;;;;;1.92;1.83;;;21.50;18.70;;;;;;5036028;28;20160;-54
2021/03/03 01:17:00;;;;;;;2.95;2.30;;;21.50;18.70;;;;;;5035978;28;20686;-54
2021/03/03 01:19:28;;;;;;;2.90;2.70;;;21.40;18.60;;;;;;5035971;28;20206;-55
2021/03/03 01:21:54;;;;;;;2.28;2.08;;;21.50;18.70;;;;;;5036000;28;20156;-54
2021/03/03 01:24:20;;;;;;;2.47;2.27;;;21.40;18.60;;;;;;5035387;28;20172;-54
2021/03/03 01:26:45;;;;;;;2.00;1.90;;;21.40;18.60;;;;;;5035816;28;20160;-54
2021/03/03 01:29:11;;;;;;;3.30;3.00;;;21.40;18.60;;;;;;5035792;28;20160;-54
2021/03/03 01:31:39;;;;;;;3.73;2.77;;;21.40;18.60;;;;;;5035839;28;20513;-55
2021/03/03 01:34:04;;;;;;;2.28;2.17;;;21.40;18.60;;;;;;5035626;28;20615;-54
2021/03/03 01:36:30;;;;;;;2.13;1.93;;;21.40;19.20;;;;;;5035658;28;20199;-54
2021/03/03 01:38:56;;;;;;;2.50;2.30;;;21.40;18.70;;;;;;5035450;28;20229;-54
2021/03/03 01:41:21;;;;;;;2.60;2.40;;;21.40;18.70;;;;;;5035656;28;20172;-54
2021/03/03 01:43:47;;;;;;;2.30;2.10;;;21.40;18.70;;;;;;5034629;28;20156;-54
2021/03/03 01:46:13;;;;;;;2.50;2.30;;;21.40;18.70;;;;;;5035678;28;20210;-54
2021/03/03 01:48:38;;;;;;;2.20;2.03;;;21.40;18.70;;;;;;5035227;28;20211;-54
2021/03/03 01:51:05;;;;;;;2.60;2.40;;;21.40;18.70;;;;;;5035485;28;20160;-54
2021/03/03 01:53:31;;;;;;;2.25;2.05;;;21.40;18.70;;;;;;5034836;28;20160;-54
2021/03/03 01:55:57;;;;;;;2.40;2.20;;;21.40;18.70;;;;;;5035099;28;20233;-54
2021/03/03 01:58:23;;;;;;;2.33;2.17;;;21.40;18.70;;;;;;5035196;28;20393;-54
2021/03/03 02:00:49;;;;;;;2.87;2.63;;;21.40;18.70;;;;;;5035237;28;20156;-55
2021/03/03 02:03:16;;;;;;;2.50;2.30;;;21.40;18.70;;;;;;5035149;28;20432;-55
2021/03/03 02:05:42;;;;;;;2.78;2.58;;;21.40;18.70;;;;;;5035028;28;20156;-54
2021/03/03 02:08:16;;;;;;;2.30;2.10;;;21.40;19.30;;;;;;5034501;28;20156;-54
2021/03/03 02:11:07;;;;;;;2.78;2.55;;;21.40;18.70;;;;;;5034980;28;20167;-54
2021/03/03 02:13:37;;;;;;;2.30;2.10;;;21.40;18.80;;;;;;5034881;28;20152;-53
2021/03/03 02:16:08;;;;;;;2.22;2.13;;;21.40;18.80;;;;;;5034819;28;20183;-54
2021/03/03 02:18:35;;;;;;;2.30;2.10;;;21.40;18.70;;;;;;5034787;28;20171;-54
2021/03/03 02:21:11;;;;;;;2.58;2.38;;;21.40;18.70;;;;;;5035252;28;20244;-54
2021/03/03 02:24:14;;;;;;;2.28;2.08;;;21.30;18.70;;;;;;5034213;28;20242;-54
2021/03/03 02:26:41;;;;;;;2.22;2.03;;;21.40;18.70;;;;;;5034602;28;20155;-54
2021/03/03 02:29:18;;;;;;;2.20;2.00;;;21.30;18.70;;;;;;5034740;28;20163;-54
2021/03/03 02:31:46;;;;;;;2.63;2.42;;;21.30;18.70;;;;;;5034564;28;20201;-53
2021/03/03 02:34:23;;;;;;;2.20;2.05;;;21.30;18.70;;;;;;5034578;28;20251;-54
2021/03/03 02:36:50;;;;;;;2.13;2.03;;;21.30;18.70;;;;;;5034447;28;20183;-54
2021/03/03 02:39:18;;;;;;;2.75;2.55;;;21.30;18.70;;;;;;5033952;28;20174;-53
2021/03/03 02:41:46;;;;;;;2.92;2.72;;;21.30;18.70;;;;;;5034483;28;20152;-54
2021/03/03 02:44:15;;;;;;;2.65;2.45;;;21.30;18.70;;;;;;5034352;28;20235;-54
2021/03/03 02:46:45;;;;;;;2.53;2.40;;;21.30;18.70;;;;;;5034401;28;20187;-54
2021/03/03 02:49:12;;;;;;;2.30;2.10;;;21.30;18.80;;;;;;5034385;28;20160;-54
2021/03/03 02:51:38;;;;;;;2.70;2.28;;;21.30;18.70;;;;;;5034242;28;20604;-54
2021/03/03 02:54:08;;;;;;;1.92;1.83;;;21.30;18.80;;;;;;5033510;28;20163;-54
2021/03/03 02:56:35;;;;;;;2.50;2.30;;;21.30;18.80;;;;;;5034198;28;20631;-55
2021/03/03 02:59:17;;;;;;;2.78;2.45;;;21.30;18.70;;;;;;5034102;28;20164;-54
2021/03/03 03:01:47;;;;;;;2.45;2.25;;;21.30;18.80;;;;;;5034030;28;20227;-54
2021/03/03 03:04:17;;;;;;;2.88;2.67;;;21.30;18.80;;;;;;5033740;28;20225;-54
2021/03/03 03:06:44;;;;;;;1.80;1.70;;;21.30;18.80;;;;;;5034282;28;20179;-54
2021/03/03 03:09:24;;;;;;;;;;;;;;;;;;;;;
2021/03/03 03:11:56;;;;;;;5.90;2.47;;;21.20;18.70;;;;;;5034175;28;20163;-54
2021/03/03 03:14:26;;;;;;;2.55;2.35;;;21.30;18.80;;;;;;5033838;28;20156;-54
2021/03/03 03:16:55;;;;;;;2.30;2.10;;;21.30;18.80;;;;;;5033909;28;20235;-53
2021/03/03 03:19:44;;;;;;;2.05;1.95;;;21.30;18.80;;;;;;5033709;28;20174;-54
2021/03/03 03:22:16;;;;;;;2.70;2.50;;;21.30;18.80;;;;;;5023347;28;20266;-54
2021/03/03 03:24:43;;;;;;;2.67;2.30;;;21.20;18.80;;;;;;5033458;28;20274;-54
2021/03/03 03:27:09;;;;;;;2.75;2.55;;;21.20;18.70;;;;;;5015935;28;20543;-54
2021/03/03 03:29:37;;;;;;;2.70;2.50;;;21.20;18.70;;;;;;5033706;28;20238;-54
2021/03/03 03:32:03;;;;;;;2.78;2.50;;;21.20;18.80;;;;;;5033802;28;20171;-53
2021/03/03 03:34:28;;;;;;;3.00;2.40;;;21.20;18.80;;;;;;5033520;28;20562;-54
2021/03/03 03:36:57;;;;;;;2.20;2.00;;;21.20;18.80;;;;;;5033419;28;20916;-55
2021/03/03 03:39:23;;;;;;;2.45;2.25;;;21.20;18.80;;;;;;5033077;28;20152;-54
2021/03/03 03:41:49;;;;;;;2.10;1.97;;;21.20;18.80;;;;;;5016139;28;20202;-54
2021/03/03 03:44:15;;;;;;;2.33;2.13;;;21.20;18.80;;;;;;5033548;28;20183;-54
2021/03/03 03:46:45;;;;;;;2.50;2.30;;;21.20;18.80;;;;;;5033249;28;20152;-54
2021/03/03 03:49:11;;;;;;;2.35;2.15;;;21.20;18.80;;;;;;5015828;28;20512;-54
2021/03/03 03:51:41;;;;;;;2.50;2.30;;;21.20;18.80;;;;;;5033603;28;20238;-54
2021/03/03 03:54:07;;;;;;;2.60;2.40;;;21.20;18.80;;;;;;5033002;28;20160;-54
2021/03/03 03:56:39;;;;;;;3.40;2.80;;;21.20;18.80;;;;;;5033305;28;20180;-55
2021/03/03 03:59:04;;;;;;;2.67;2.47;;;21.20;18.80;;;;;;5033365;28;20619;-54
2021/03/03 04:01:30;;;;;;;2.40;2.20;;;21.20;18.80;;;;;;5033515;28;20164;-54
2021/03/03 04:03:55;;;;;;;2.03;1.90;;;21.20;18.80;;;;;;5033276;28;20160;-54
2021/03/03 04:06:21;;;;;;;2.10;2.00;;;21.20;18.90;;;;;;5035027;28;20654;-54
2021/03/03 04:08:47;;;;;;;2.03;1.90;;;21.20;18.80;;;;;;5037077;28;20641;-54
2021/03/03 04:11:15;;;;;;;2.50;2.30;;;21.20;18.80;;;;;;5037366;28;20167;-54
2021/03/03 04:13:40;;;;;;;2.13;2.03;;;21.20;19.00;;;;;;5037123;28;20164;-53
2021/03/03 04:16:06;;;;;;;2.73;2.53;;;21.20;18.80;;;;;;5037048;28;20219;-53
2021/03/03 04:18:31;;;;;;;2.37;2.10;;;21.20;18.90;;;;;;5036980;28;20255;-54
2021/03/03 04:20:57;;;;;;;2.03;1.83;;;21.20;18.90;;;;;;5037166;28;20168;-54
2021/03/03 04:23:23;;;;;;;2.63;2.07;;;21.20;18.90;;;;;;5036519;28;20164;-54
2021/03/03 04:25:51;;;;;;;2.20;2.00;;;21.20;18.90;;;;;;5037230;28;20389;-54
2021/03/03 04:28:19;;;;;;;2.22;2.03;;;21.20;18.90;;;;;;5037037;28;20600;-54
2021/03/03 04:30:45;;;;;;;3.20;2.45;;;21.20;18.90;;;;;;5037037;28;20164;-54
2021/03/03 04:33:12;;;;;;;2.40;2.20;;;21.20;18.90;;;;;;5036803;28;20203;-54
2021/03/03 04:35:43;;;;;;;3.20;2.40;;;21.10;18.80;;;;;;5036555;28;20170;-54
2021/03/03 04:38:12;;;;;;;2.10;1.90;;;21.10;18.80;;;;;;5036223;28;20239;-54
2021/03/03 04:40:37;;;;;;;2.70;2.50;;;21.10;18.80;;;;;;5036676;28;20152;-54
2021/03/03 04:43:03;;;;;;;2.30;2.17;;;21.10;19.40;;;;;;5036716;28;20164;-54
2021/03/03 04:45:34;;;;;;;2.60;2.40;;;21.10;18.90;;;;;;5036616;28;20236;-53
2021/03/03 04:48:00;;;;;;;2.40;2.17;;;21.10;18.90;;;;;;5036256;28;20896;-53
2021/03/03 04:50:25;;;;;;;2.80;2.60;;;21.10;18.80;;;;;;5036426;28;20165;-53
2021/03/03 04:52:51;;;;;;;3.03;2.80;;;21.10;18.80;;;;;;5036467;28;20222;-54
2021/03/03 04:55:17;;;;;;;2.30;2.10;;;21.10;18.80;;;;;;5036067;28;20628;-53
2021/03/03 04:57:43;;;;;;;2.65;2.10;;;21.10;18.90;;;;;;5036351;28;20201;-55
2021/03/03 05:00:09;;;;;;;2.23;2.00;;;21.10;18.90;;;;;;5018580;28;20164;-55
2021/03/03 05:02:35;;;;;;;2.72;2.53;;;21.10;18.80;;;;;;5036428;28;20160;-54
2021/03/03 05:05:00;;;;;;;2.53;2.33;;;21.10;18.90;;;;;;5036149;28;20603;-54
2021/03/03 05:07:26;;;;;;;1.70;1.60;;;21.10;18.90;;;;;;5018556;28;20218;-54
2021/03/03 05:09:52;;;;;;;2.00;1.90;;;21.10;19.40;;;;;;5035697;28;20156;-53
2021/03/03 05:12:17;;;;;;;3.20;2.37;;;21.10;18.90;;;;;;5036083;28;20259;-54
2021/03/03 05:14:43;;;;;;;2.63;2.43;;;21.10;18.90;;;;;;5036007;28;20164;-54
2021/03/03 05:17:09;;;;;;;2.40;2.20;;;21.10;18.90;;;;;;5034797;28;20305;-54
2021/03/03 05:19:34;;;;;;;1.83;1.73;;;21.00;18.80;;;;;;5035537;28;20199;-54
2021/03/03 05:22:00;;;;;;;2.47;2.27;;;21.10;18.90;;;;;;5036112;28;20206;-54
2021/03/03 05:24:25;;;;;;;2.57;2.37;;;21.10;18.90;;;;;;5017647;28;20168;-54
2021/03/03 05:26:51;;;;;;;2.33;2.13;;;21.00;18.80;;;;;;5035699;28;20203;-54
2021/03/03 05:29:19;;;;;;;2.50;2.30;;;21.00;18.80;;;;;;5018344;28;20283;-54
2021/03/03 05:31:45;;;;;;;1.90;1.80;;;21.00;18.80;;;;;;5036047;28;20164;-53
2021/03/03 05:34:13;;;;;;;1.90;1.80;;;21.00;18.90;;;;;;5035456;28;20247;-54
2021/03/03 05:36:39;;;;;;;2.35;2.15;;;21.00;18.80;;;;;;5035543;28;20774;-54
2021/03/03 05:39:16;;;;;;;2.20;2.00;;;21.00;18.80;;;;;;5035049;28;20251;-54
2021/03/03 05:41:42;;;;;;;3.38;3.08;;;21.00;18.80;;;;;;5035505;28;20152;-54
2021/03/03 05:44:08;;;;;;;2.53;2.33;;;21.00;18.90;;;;;;5035390;28;20160;-54
2021/03/03 05:46:37;;;;;;;2.45;2.22;;;21.00;18.80;;;;;;5035307;28;20434;-54
2021/03/03 05:49:04;;;;;;;2.42;2.22;;;21.00;18.80;;;;;;5035204;28;20191;-54
2021/03/03 05:51:31;;;;;;;2.15;1.95;;;21.00;18.80;;;;;;5035332;28;20160;-54
2021/03/03 05:53:59;;;;;;;1.98;1.88;;;21.00;18.80;;;;;;5034934;28;20163;-54
2021/03/03 05:56:26;;;;;;;2.40;2.20;;;21.00;18.80;;;;;;5035230;28;20205;-54
2021/03/03 05:58:53;;;;;;;1.92;1.83;;;21.00;18.80;;;;;;5035135;28;20152;-55
2021/03/03 06:01:21;;;;;;;2.25;2.15;;;21.00;18.90;;;;;;5035200;28;20164;-54
2021/03/03 06:03:47;;;;;;;2.50;2.30;;;21.00;18.90;;;;;;5034929;28;20145;-54
2021/03/03 06:06:13;;;;;;;2.50;2.30;;;21.00;18.80;;;;;;5034931;28;20163;-54
2021/03/03 06:08:39;;;;;;;2.13;1.93;;;21.00;18.90;;;;;;5034322;28;20164;-55
2021/03/03 06:11:04;;;;;;;2.60;2.40;;;21.00;18.80;;;;;;5035040;28;20389;-54
2021/03/03 06:13:31;;;;;;;2.10;2.00;;;21.00;18.90;;;;;;5034768;28;20156;-54
2021/03/03 06:15:57;;;;;;;2.10;2.00;;;21.00;18.90;;;;;;5035067;28;20226;-54
2021/03/03 06:18:25;;;;;;;2.95;2.60;;;21.00;18.90;;;;;;5034265;28;20255;-54
2021/03/03 06:20:53;;;;;;;2.47;2.28;;;21.00;18.90;;;;;;5034782;28;20163;-54
2021/03/03 06:23:29;;;;;;;2.20;2.00;;;21.00;18.90;;;;;;5034027;28;20492;-54
2021/03/03 06:26:01;;;;;;;1.98;1.88;;;21.00;18.90;;;;;;5034743;28;20626;-55
2021/03/03 06:28:45;;;;;;;2.10;1.90;;;21.00;18.80;;;;;;5034062;28;20156;-53
2021/03/03 06:31:26;;;;;;;2.00;1.90;;;21.00;18.80;;;;;;5034399;28;20556;-54
2021/03/03 06:33:53;;;;;;;2.10;2.00;;;21.00;18.80;;;;;;5034186;28;20247;-54
2021/03/03 06:36:29;;;;;;;1.95;1.85;;;21.00;18.80;;;;;;5034293;28;20191;-54
2021/03/03 06:38:55;;;;;;;2.60;2.40;;;21.00;18.80;;;;;;5034035;28;20198;-55
2021/03/03 06:41:20;;;;;;;2.27;2.17;;;21.00;18.80;;;;;;5034282;28;20507;-54
2021/03/03 06:43:58;;;;;;;2.60;2.30;;;21.00;18.80;;;;;;5034191;28;20381;-55
2021/03/03 06:46:24;;;;;;;2.08;1.90;;;21.00;19.30;;;;;;5033990;28;20183;-54
2021/03/03 06:48:51;;;;;;;2.40;2.20;;;21.00;18.80;;;;;;5034209;28;20164;-55
2021/03/03 06:51:22;;;;;;;2.70;2.50;;;21.00;18.80;;;;;;5034043;28;20546;-54
2021/03/03 06:53:49;;;;;;;2.40;2.20;;;21.00;18.80;;;;;;5033714;28;20163;-55
2021/03/03 06:56:34;;;;;;;2.28;2.08;;;20.90;18.80;;;;;;5034110;28;20187;-54
2021/03/03 06:59:13;;;;;;;2.25;2.05;;;21.00;18.80;;;;;;5033899;28;20239;-54
2021/03/03 07:01:40;;;;;;;1.80;1.70;;;20.90;18.70;;;;;;5033525;28;20214;-54
2021/03/03 07:04:25;;;;;;;2.47;2.28;;;20.90;18.70;;;;;;5033532;28;20152;-54
2021/03/03 07:06:52;;;;;;;2.17;2.00;;;21.00;18.80;;;;;;5033631;28;20159;-54
2021/03/03 07:09:20;;;;;;;2.72;2.53;;;20.90;18.80;;;;;;5033182;28;20271;-55
2021/03/03 07:11:45;;;;;;;2.10;1.90;;;20.90;18.70;;;;;;5033547;28;20160;-54
2021/03/03 07:14:30;;;;;;;2.67;2.47;;;20.90;18.70;;;;;;5033436;28;20251;-54
2021/03/03 07:17:18;;;;;;;2.10;2.00;;;20.90;18.80;;;;;;5033501;28;20686;-54
2021/03/03 07:19:59;;;;;;;2.15;1.95;;;20.90;18.70;;;;;;5033303;28;20222;-54
2021/03/03 07:22:39;;;;;;;2.15;2.05;;;20.90;18.70;;;;;;5033447;28;20194;-54
2021/03/03 07:25:12;;;;;;;2.53;2.30;;;20.90;18.70;;;;;;5032972;28;20206;-54
2021/03/03 07:27:40;;;;;;;3.35;2.40;;;20.90;18.70;;;;;;5033392;28;20247;-54
2021/03/03 07:30:07;;;;;;;2.38;2.20;;;20.90;18.70;;;;;;5015626;28;20202;-54
2021/03/03 07:32:35;;;;;;;2.33;2.17;;;20.90;18.70;;;;;;5033255;28;20222;-54
2021/03/03 07:35:03;;;;;;;2.00;1.90;;;20.90;18.70;;;;;;5033245;28;20232;-54
2021/03/03 07:37:34;;;;;;;2.38;2.10;;;20.90;18.70;;;;;;5033042;28;20217;-53
2021/03/03 07:40:03;;;;;;;2.75;2.55;;;20.90;18.70;;;;;;5032200;28;20273;-54
2021/03/03 07:42:30;;;;;;;2.88;2.65;;;20.90;18.70;;;;;;5032699;28;20603;-54
2021/03/03 07:44:58;;;;;;;2.50;2.28;;;20.90;18.70;;;;;;5033144;28;20202;-54
2021/03/03 07:47:38;;;;;;;2.38;2.20;;;20.90;18.70;;;;;;5032863;28;20221;-54
2021/03/03 07:50:13;;;;;;;2.70;2.50;;;20.90;18.70;;;;;;5032639;28;20235;-54
2021/03/03 07:52:49;;;;;;;2.45;2.30;;;20.90;18.70;;;;;;5032958;28;20625;-53
2021/03/03 07:55:15;;;;;;;2.50;2.30;;;20.90;18.70;;;;;;5032510;28;20148;-54
2021/03/03 07:57:44;;;;;;;2.70;2.50;;;21.00;18.70;;;;;;5032702;28;20241;-54
2021/03/03 08:00:24;;;;;;;2.55;2.33;;;20.90;18.70;;;;;;4989609;28;20732;-54
2021/03/03 08:02:52;;;;;;;2.47;2.20;;;20.90;18.70;;;;;;5024337;28;20278;-54
2021/03/03 08:05:36;;;;;;;2.53;2.28;;;20.90;18.70;;;;;;5032070;28;20163;-55
2021/03/03 08:08:25;;;;;;;2.65;2.45;;;20.90;18.70;;;;;;5032130;28;20488;-55
2021/03/03 08:11:11;;;;;;;2.70;1.80;;;20.90;18.70;;;;;;5012672;28;20690;-55
2021/03/03 08:13:39;;;;;;;3.40;3.10;;;20.90;18.70;;;;;;5013057;28;20231;-54
2021/03/03 08:16:08;;;;;;;2.03;1.92;;;20.90;18.60;;;;;;5032102;28;20582;-55
2021/03/03 08:18:49;;;;;;;2.67;2.47;;;21.00;18.70;;;;;;5032585;28;20622;-56
2021/03/03 08:21:18;;;;;;;2.53;2.33;;;20.90;18.60;;;;;;5032232;28;20284;-57
2021/03/03 08:23:45;;;;;;;2.40;2.20;;;20.90;18.60;;;;;;5032098;28;20152;-56
2021/03/03 08:26:31;;;;;;;3.25;2.97;;;21.00;18.70;;;;;;5032443;28;20160;-56
2021/03/03 08:29:11;;;;;;;2.33;2.13;;;21.00;18.70;;;;;;5032320;28;20180;-56
2021/03/03 08:31:39;;;;;;;2.13;1.90;;;21.00;18.60;;;;;;5032294;28;20214;-56
2021/03/03 08:34:07;;;;;;;2.67;2.38;;;21.00;18.60;;;;;;5032433;28;20152;-56
2021/03/03 08:36:34;;;;;;;3.65;2.65;;;21.00;18.60;;;;;;5031415;28;20570;-56
2021/03/03 08:39:00;;;;;;;2.60;2.40;;;21.00;18.60;;;;;;5031386;28;20171;-56
2021/03/03 08:41:25;;;;;;;2.40;2.20;;;21.00;18.60;;;;;;5031906;28;20148;-56
2021/03/03 08:44:11;;;;;;;2.40;2.20;;;21.00;18.60;;;;;;5030841;28;20346;-53
2021/03/03 08:46:52;;;;;;;2.53;2.33;;;21.00;18.60;;;;;;5031496;28;20431;-54
2021/03/03 08:49:22;;;;;;;3.25;2.35;;;21.00;18.60;;;;;;5031133;28;20650;-60
2021/03/03 08:52:11;;;;;;;2.22;2.03;;;21.00;18.60;;;;;;5016836;28;20660;-54
2021/03/03 08:54:44;;;;;;;2.38;2.17;;;21.00;18.60;;;;;;5035350;28;20209;-54
2021/03/03 08:57:37;;;;;;;2.55;2.33;;;21.00;18.60;;;;;;5035778;28;20187;-55
2021/03/03 09:00:05;;;;;;;2.90;2.65;;;21.00;18.50;;;;;;5032915;28;20192;-55
2021/03/03 09:02:38;;;;;;;1.98;1.88;;;21.00;18.60;;;;;;5015347;28;20256;-55
2021/03/03 09:05:10;;;;;;;2.45;2.28;;;21.00;18.50;;;;;;5015876;28;20161;-55
2021/03/03 09:07:38;;;;;;;2.45;2.25;;;21.00;18.50;;;;;;4998181;28;20199;-55
2021/03/03 09:10:15;;;;;;;2.58;2.38;;;21.00;18.50;;;;;;5017134;28;20627;-54
2021/03/03 09:12:45;;;;;;;2.20;2.05;;;21.00;18.50;;;;;;5017449;28;20720;-55
2021/03/03 09:15:15;;;;;;;2.30;2.20;;;21.00;18.50;;;;;;5035419;28;20180;-55
2021/03/03 09:17:43;;;;;;;2.67;2.47;;;21.00;18.40;;;;;;5015368;28;20683;-54
2021/03/03 09:20:10;;;;;;;2.20;2.00;;;21.10;18.50;;;;;;5019005;28;20174;-55
2021/03/03 09:22:47;;;;;;;2.47;2.28;;;21.10;18.50;;;;;;5035076;28;20168;-54
2021/03/03 09:25:20;;;;;;;2.38;2.17;;;21.10;18.50;;;;;;5033500;28;20168;-55
2021/03/03 09:27:54;;;;;;;3.10;2.20;;;21.10;18.40;;;;;;5034713;28;20243;-57
2021/03/03 09:30:24;;;;;;;2.15;2.05;;;21.10;18.40;;;;;;5034715;28;20217;-55
2021/03/03 09:32:50;;;;;;;2.13;2.00;;;21.10;18.40;;;;;;5034418;28;20250;-55
2021/03/03 09:35:27;;;;;;;2.67;2.47;;;21.10;18.40;;;;;;5034300;28;20557;-54
2021/03/03 09:37:53;;;;;;;2.70;2.50;;;21.10;18.40;;;;;;5034283;28;20568;-55
2021/03/03 09:40:25;;;;;;;2.63;2.42;;;21.10;18.40;;;;;;5034010;28;20171;-55
2021/03/03 09:42:51;;;;;;;2.30;2.10;;;21.10;18.40;;;;;;5008937;28;20274;-56
2021/03/03 09:45:18;;;;;;;1.80;1.70;;;21.10;18.40;;;;;;5026024;28;20199;-55
2021/03/03 09:47:51;;;;;;;2.03;1.92;;;21.10;18.40;;;;;;5034423;28;20180;-56
2021/03/03 09:50:21;;;;;;;2.35;2.15;;;21.10;18.40;;;;;;5034630;28;20242;-54
2021/03/03 09:52:58;;;;;;;2.65;2.45;;;21.10;18.30;;;;;;5034550;28;20172;-55
2021/03/03 09:55:33;;;;;;;2.60;2.40;;;21.10;18.30;;;;;;5034527;28;20155;-55
2021/03/03 09:58:00;;;;;;;2.20;2.10;;;21.10;18.30;;;;;;5033883;28;20226;-55
2021/03/03 10:00:39;;;;;;;2.60;2.42;;;21.10;18.30;;;;;;5016129;28;20179;-55
2021/03/03 10:03:07;;;;;;;2.65;2.45;;;21.20;18.40;;;;;;5033547;28;20171;-55
2021/03/03 10:05:34;;;;;;;2.50;2.30;;;21.10;18.30;;;;;;5033580;28;20167;-54
2021/03/03 10:08:01;;;;;;;2.80;2.60;;;21.20;18.40;;;;;;5033719;28;20642;-54
2021/03/03 10:10:31;;;;;;;3.10;2.80;;;21.20;18.30;;;;;;5034428;28;20159;-54
2021/03/03 10:12:57;;;;;;;2.40;2.20;;;21.20;18.30;;;;;;5034400;28;20164;-54
2021/03/03 10:15:34;;;;;;;1.98;1.88;;;21.20;18.30;;;;;;5035223;28;20206;-58
2021/03/03 10:18:04;;;;;;;2.40;2.20;;;21.20;18.30;;;;;;5033601;28;20709;-58
2021/03/03 10:20:51;;;;;;;3.22;2.92;;;21.20;18.30;;;;;;5017247;28;20196;-57
2021/03/03 10:23:26;;;;;;;3.15;2.88;;;21.20;18.30;;;;;;5033060;28;20163;-58
2021/03/03 10:26:04;;;;;;;2.70;2.50;;;21.20;18.20;;;;;;5034284;28;20160;-58
2021/03/03 10:28:37;;;;;;;2.30;2.10;;;21.20;18.30;;;;;;5033783;28;20178;-58
2021/03/03 10:31:05;;;;;;;3.92;2.92;;;21.20;18.20;;;;;;5034588;28;20156;-55
2021/03/03 10:33:31;;;;;;;2.60;2.40;;;21.20;18.20;;;;;;5033364;28;20213;-54
2021/03/03 10:35:59;;;;;;;3.05;2.85;;;21.20;18.20;;;;;;5033665;28;20235;-55
2021/03/03 10:38:25;;;;;;;2.70;2.50;;;21.30;18.20;;;;;;5032400;28;20662;-54
2021/03/03 10:40:54;;;;;;;2.90;2.70;;;21.20;18.10;;;;;;5033668;28;20179;-54
2021/03/03 10:43:22;;;;;;;3.00;2.80;;;21.30;18.20;;;;;;5033353;28;20167;-55
2021/03/03 10:46:08;;;;;;;2.60;2.40;;;21.30;18.20;;;;;;5034172;28;20259;-55
2021/03/03 10:48:34;;;;;;;2.22;2.13;;;21.30;18.10;;;;;;5033058;28;20570;-55
2021/03/03 10:51:02;;;;;;;2.00;1.80;;;21.30;18.10;;;;;;5033529;28;20176;-55
2021/03/03 10:54:06;;;;;;;2.35;2.15;;;21.30;18.10;;;;;;5032905;28;20250;-54
2021/03/03 10:56:43;;;;;;;2.88;2.60;;;21.30;18.10;;;;;;5031972;28;20215;-55
2021/03/03 10:59:31;;;;;;;2.40;2.20;;;21.40;18.10;;;;;;5033750;28;20148;-54
2021/03/03 11:01:58;;;;;;;2.67;2.45;;;21.40;18.10;;;;;;5013462;28;20244;-53
2021/03/03 11:04:44;;;;;;;4.20;3.00;;;21.40;18.00;;;;;;5013835;28;20157;-54
2021/03/03 11:07:15;;;;;;;2.97;2.75;;;21.40;18.00;;;;;;5031869;28;20221;-54
2021/03/03 11:09:41;;;;;;;2.38;2.28;;;21.40;17.90;;;;;;5032780;28;20258;-54
2021/03/03 11:12:10;;;;;;;2.13;1.95;;;21.40;17.90;;;;;;5033378;28;20643;-55
2021/03/03 11:14:36;;;;;;;2.42;2.22;;;21.40;17.90;;;;;;5033327;28;20619;-55
2021/03/03 11:17:03;;;;;;;2.28;2.08;;;21.40;17.80;;;;;;5032768;28;20238;-56
2021/03/03 11:19:29;;;;;;;2.33;2.13;;;21.50;17.90;;;;;;5032235;28;20168;-54
2021/03/03 11:21:56;;;;;;;2.58;2.20;;;21.50;17.80;;;;;;5032625;28;20173;-54
2021/03/03 11:24:23;;;;;;;3.35;2.70;;;21.50;17.80;;;;;;5032593;28;20186;-55
2021/03/03 11:26:52;;;;;;;2.40;2.28;;;21.50;17.80;;;;;;5033179;28;20237;-54
2021/03/03 11:29:20;;;;;;;2.50;2.30;;;21.50;17.80;;;;;;5032337;28;20226;-55
2021/03/03 11:31:46;;;;;;;3.95;2.60;;;23.10;18.80;;;;;;5032999;28;20182;-55
2021/03/03 11:34:12;;;;;;;2.20;2.00;;;21.60;18.30;;;;;;5033243;28;20164;-54
2021/03/03 11:36:38;;;;;;;2.60;2.40;;;21.50;17.70;;;;;;5033308;28;20199;-55
2021/03/03 11:39:05;;;;;;;2.73;2.20;;;21.60;17.70;;;;;;5032570;28;20909;-54
2021/03/03 11:41:30;;;;;;;3.20;2.92;;;21.60;17.70;;;;;;5031994;28;20214;-55
2021/03/03 11:43:56;;;;;;;2.60;2.40;;;21.60;17.70;;;;;;5032691;28;20160;-54
2021/03/03 11:46:22;;;;;;;2.80;2.43;;;21.60;17.70;;;;;;5032968;28;20156;-54
2021/03/03 11:48:48;;;;;;;2.87;2.07;;;21.60;17.60;;;;;;5032705;28;20214;-55
2021/03/03 11:51:16;;;;;;;2.90;2.37;;;21.60;17.60;;;;;;5032634;28;20179;-55
2021/03/03 11:53:43;;;;;;;3.00;2.53;;;21.60;17.60;;;;;;5031412;28;20175;-55
2021/03/03 11:56:09;;;;;;;2.17;2.08;;;21.60;17.50;;;;;;5032927;28;20160;-54
2021/03/03 11:58:35;;;;;;;3.00;2.80;;;21.70;17.50;;;;;;5032194;28;20477;-56
2021/03/03 12:01:01;;;;;;;2.50;2.30;;;21.60;17.50;;;;;;5031971;28;20163;-54
2021/03/03 12:03:27;;;;;;;2.58;2.38;;;21.70;17.50;;;;;;5032412;28;20163;-56
2021/03/03 12:05:53;;;;;;;2.80;2.60;;;21.70;17.40;;;;;;5031964;28;20677;-55
2021/03/03 12:08:18;;;;;;;3.07;2.87;;;21.70;17.40;;;;;;5031540;28;20170;-54
2021/03/03 12:10:50;;;;;;;2.10;2.00;;;21.70;17.40;;;;;;5031474;28;20643;-55
2021/03/03 12:13:15;;;;;;;2.55;2.35;;;21.70;17.40;;;;;;5032640;28;20881;-55
2021/03/03 12:15:41;;;;;;;2.33;2.20;;;21.70;17.40;;;;;;5032368;28;20615;-55
2021/03/03 12:18:07;;;;;;;2.73;2.53;;;21.70;17.40;;;;;;5031806;28;20706;-55
2021/03/03 12:20:33;;;;;;;2.67;2.47;;;21.70;17.40;;;;;;5031984;28;20168;-55
2021/03/03 12:22:59;;;;;;;2.50;2.30;;;21.70;17.40;;;;;;5032009;28;20156;-54
2021/03/03 12:25:28;;;;;;;3.20;2.60;;;21.70;17.40;;;;;;5031932;28;20171;-55
2021/03/03 12:27:54;;;;;;;3.28;2.50;;;23.50;18.60;;;;;;5034427;28;20164;-55
2021/03/03 12:30:21;;;;;;;2.33;2.10;;;21.70;17.40;;;;;;5035971;28;20164;-54
2021/03/03 12:32:46;;;;;;;2.67;2.47;;;21.70;17.40;;;;;;5036067;28;20168;-55
2021/03/03 12:35:15;;;;;;;2.40;2.20;;;21.70;17.40;;;;;;5035798;28;20566;-54
2021/03/03 12:37:41;;;;;;;2.65;2.45;;;21.70;17.40;;;;;;5036054;28;20249;-55
2021/03/03 12:40:08;;;;;;;2.40;2.20;;;21.70;17.40;;;;;;5035075;28;20156;-54
2021/03/03 12:42:33;;;;;;;2.50;2.30;;;19.70;16.00;;;;;;5035646;28;20190;-54
2021/03/03 12:44:59;;;;;;;3.20;3.00;;;21.70;17.40;;;;;;5035440;28;20171;-54
2021/03/03 12:47:25;;;;;;;2.30;2.10;;;21.70;17.40;;;;;;5035388;28;20188;-54
2021/03/03 12:49:50;;;;;;;4.20;2.47;;;21.70;17.40;;;;;;5017616;28;20190;-55
2021/03/03 12:52:16;;;;;;;2.60;2.40;;;21.80;17.40;;;;;;4995605;28;20687;-55
2021/03/03 12:54:42;;;;;;;2.50;2.30;;;21.80;17.50;;;;;;5022868;28;20242;-54
2021/03/03 12:57:12;;;;;;;2.90;2.70;;;21.80;17.50;;;;;;5035445;28;20192;-56
2021/03/03 12:59:40;;;;;;;2.50;2.40;;;21.80;17.50;;;;;;5034680;28;20191;-55